M I D A S
Marine Information and Data Acquisition System
Tripno 1005 of the Zeeleeuw from 2005-09-08 06:19:00 to 2005-09-08 12:46:35
Back to CruiseResearch ActivitiesStationsMapUnderway DataData graphs

EquipmentUnitsComment
TimeDGPSUTC
LatitudeDGPSDM.mWGS84
LongitudeDGPSDM.mWGS84
TemperatureSBE03/SBE38deg celciusITS90
ConductivitySBE21S/mITS90
SalinitySBE21 Practical Salinity Units
ChlorophylAChelsea fluorimeterg/lCalibrated in Aceton
Missing or incorrect values are displayed as -999
Sea surface data collected by the RV Zeeleeuw from 2005-09-08 06:14:50 to 2005-09-08 13:52:24
Time Latitude Longitude Temperature Conductivity Salinity ChlorophylA
2005-09-08 06:15:54 51°13.588 2°56.1 -999 4.32036 28.060843 -0.477864
2005-09-08 06:16:56 51°13.56 2°56.159 -999 4.319945 28.061462 -0.477864
2005-09-08 06:17:55 51°13.534 2°56.189 -999 4.319427 28.06133 -0.477864
2005-09-08 06:18:56 51°13.534 2°56.184 -999 4.319012 28.061949 -0.477864
2005-09-08 06:19:56 51°13.548 2°56.201 -999 4.318493 28.060459 -0.477864
2005-09-08 06:20:55 51°13.546 2°56.153 -999 4.317975 28.060327 -0.477864
2005-09-08 06:21:56 51°13.605 2°56.009 -999 4.31756 28.060494 -0.477864
2005-09-08 06:22:55 51°13.68 2°55.832 -999 4.317041 28.060363 -0.444155
2005-09-08 06:23:55 51°13.774 2°55.683 -999 4.316626 28.06053 -0.477864
2005-09-08 06:24:55 51°13.897 2°55.579 -999 4.316108 28.060399 -0.477864
2005-09-08 06:25:55 51°14.034 2°55.48 -999 4.315589 28.059815 -0.477864
2005-09-08 06:26:55 51°14.168 2°55.376 -999 4.315175 28.060436 -0.477864
2005-09-08 06:27:55 51°14.278 2°55.194 -999 4.31476 28.06015 -0.477864
2005-09-08 06:28:54 51°14.381 2°54.979 -999 4.314345 28.058957 -0.477864
2005-09-08 06:29:55 51°14.542 2°54.772 -999 4.31393 28.059578 -0.477864
2005-09-08 06:30:55 51°14.731 2°54.603 -999 4.313515 28.059746 -0.477864
2005-09-08 06:31:56 51°14.927 2°54.438 -999 4.3131 28.058554 -0.477864
2005-09-08 06:32:55 51°15.117 2°54.271 -999 4.312789 28.058566 -0.477864
2005-09-08 06:33:55 51°15.315 2°54.099 -999 4.312478 28.059486 -0.477864
2005-09-08 06:34:55 51°15.51 2°53.919 -999 4.312063 28.059201 -0.477864
2005-09-08 06:35:55 51°15.704 2°53.745 -999 4.311752 28.059668 -0.477864
2005-09-08 06:36:56 51°15.901 2°53.573 -999 4.311441 28.059681 -0.444155
2005-09-08 06:37:55 51°16.097 2°53.407 -999 4.311026 28.058942 -0.477864
2005-09-08 06:38:55 51°16.297 2°53.238 -999 4.310715 28.059409 -0.477864
2005-09-08 06:39:55 51°16.5 2°53.072 -999 4.310404 28.059876 -0.477864
2005-09-08 06:40:55 51°16.7 2°52.902 -999 4.309989 28.059138 -0.444155
2005-09-08 06:41:55 51°16.899 2°52.738 -999 4.309678 28.059605 -0.477864
2005-09-08 06:42:55 51°17.102 2°52.576 -999 4.309367 28.059619 -0.477864
2005-09-08 06:43:56 51°17.314 2°52.441 -999 4.309056 28.060086 -0.444155
2005-09-08 06:44:55 51°17.519 2°52.301 -999 4.308641 28.059802 -0.477864
2005-09-08 06:45:55 51°17.731 2°52.184 -999 4.30833 28.059816 -0.477864
2005-09-08 06:46:55 51°17.944 2°52.077 -999 4.308019 28.060284 -0.477864
2005-09-08 06:47:55 51°18.155 2°51.969 -999 4.307708 28.060298 -0.477864
2005-09-08 06:48:55 51°18.365 2°51.858 -999 4.307293 28.060014 -0.477864
2005-09-08 06:49:56 51°18.577 2°51.748 -999 4.306982 28.060482 -0.477864
2005-09-08 06:50:55 51°18.787 2°51.64 -999 4.30667 28.060951 -0.477864
2005-09-08 06:51:56 51°18.999 2°51.528 -999 4.306256 28.061122 -0.477864
2005-09-08 06:52:56 51°19.209 2°51.432 -999 4.305945 28.061591 -0.477864
2005-09-08 06:53:56 51°19.42 2°51.338 -999 4.30553 28.061762 -0.477864
2005-09-08 06:54:55 51°19.629 2°51.245 -999 4.305219 28.062232 -0.477864
2005-09-08 06:55:56 51°19.844 2°51.144 -999 4.3047 28.06165 -0.477864
2005-09-08 06:56:56 51°20.059 2°51.046 -999 4.304389 28.06212 -0.477864
2005-09-08 06:57:55 51°20.272 2°50.948 -999 4.303974 28.061836 -0.477864
2005-09-08 06:58:56 51°20.489 2°50.849 -999 4.303559 28.062008 -0.477864
2005-09-08 06:59:55 51°20.7 2°50.75 -999 4.303144 28.060815 -0.477864
2005-09-08 07:00:55 51°20.915 2°50.652 -999 4.302833 28.061285 -0.477864
2005-09-08 07:01:54 51°21.129 2°50.556 -999 4.302418 28.061457 -0.477864
2005-09-08 07:02:56 51°21.353 2°50.458 -999 4.302107 28.061472 -0.477864
2005-09-08 07:03:55 51°21.572 2°50.367 -999 4.301693 28.061645 -0.477864
2005-09-08 07:04:56 51°21.792 2°50.271 -999 4.301381 28.062116 -0.477864
2005-09-08 07:05:56 51°22.011 2°50.181 -999 4.300967 28.061833 -0.477864
2005-09-08 07:06:56 51°22.229 2°50.093 -999 4.300655 28.061849 -0.477864
2005-09-08 07:07:56 51°22.444 2°49.996 -999 4.300241 28.062022 -0.477864
2005-09-08 07:08:55 51°22.658 2°49.906 -999 4.299826 28.061739 -0.444155
2005-09-08 07:09:56 51°22.874 2°49.812 -999 4.476047 32.481974 -1.118343
2005-09-08 07:10:56 51°23.089 2°49.721 -999 4.470036 32.836291 -1.118343
2005-09-08 07:11:56 51°23.304 2°49.631 -999 4.464952 32.841858 -1.118343
2005-09-08 07:12:56 51°23.518 2°49.538 -999 4.462255 32.84738 -1.118343
2005-09-08 07:13:56 51°23.735 2°49.473 -999 4.467858 32.907108 -1.118343
2005-09-08 07:14:56 51°23.953 2°49.407 -999 4.469104 32.937162 -1.084634
2005-09-08 07:15:56 51°24.171 2°49.348 -999 4.469727 32.949106 -1.084634
2005-09-08 07:16:56 51°24.389 2°49.295 -999 4.467133 32.935764 -1.084634
2005-09-08 07:17:55 51°24.605 2°49.237 -999 4.458832 32.870403 -1.084634
2005-09-08 07:18:56 51°24.821 2°49.128 -999 4.454993 32.845543 -1.050924
2005-09-08 07:19:56 51°25.032 2°49.001 -999 4.452191 32.824912 -1.050924
2005-09-08 07:20:56 51°25.246 2°48.877 -999 4.457794 32.873593 -1.017215
2005-09-08 07:21:56 51°25.455 2°48.746 -999 4.484255 33.100673 -0.983506
2005-09-08 07:22:55 51°25.66 2°48.606 -999 4.480415 33.074569 -0.983506
2005-09-08 07:23:56 51°25.826 2°48.503 -999 4.503349 33.275333 -0.949796
2005-09-08 07:24:55 51°25.952 2°48.436 -999 4.511132 33.35918 -0.949796
2005-09-08 07:25:56 51°26.024 2°48.409 -999 4.511651 33.371652 -0.916087
2005-09-08 07:26:56 51°26.025 2°48.381 -999 4.512066 33.375088 -0.882377
2005-09-08 07:27:56 51°26.026 2°48.355 -999 4.512274 33.38562 -0.882377
2005-09-08 07:28:56 51°26.027 2°48.336 -999 4.51217 33.383501 -0.848668
2005-09-08 07:29:56 51°26.029 2°48.319 -999 4.512378 33.385849 -0.848668
2005-09-08 07:30:56 51°26.032 2°48.305 -999 4.513104 33.391235 -0.848668
2005-09-08 07:31:56 51°26.048 2°48.314 -999 4.515595 33.40997 -0.814958
2005-09-08 07:32:55 51°26.044 2°48.382 -999 4.513208 33.386427 -0.814958
2005-09-08 07:33:55 51°25.989 2°48.442 -999 4.511651 33.371652 -0.781249
2005-09-08 07:34:56 51°25.976 2°48.476 -999 4.511651 33.367877 -0.781249
2005-09-08 07:35:56 51°25.98 2°48.491 -999 4.510406 33.360714 -0.781249
2005-09-08 07:36:55 51°25.987 2°48.499 -999 4.510094 33.361911 -0.781249
2005-09-08 07:37:55 51°25.994 2°48.504 -999 4.509679 33.359103 -0.781249
2005-09-08 07:38:55 51°26.001 2°48.505 -999 4.509783 33.356817 -0.74754
2005-09-08 07:39:55 51°26.009 2°48.503 -999 4.509783 33.353044 -0.74754
2005-09-08 07:40:55 51°26.016 2°48.5 -999 4.509679 33.350928 -0.74754
2005-09-08 07:41:55 51°26.023 2°48.496 -999 4.509575 33.34944 -0.74754
2005-09-08 07:42:56 51°26.03 2°48.491 -999 4.509887 33.349502 -0.74754
2005-09-08 07:43:56 51°26.036 2°48.484 -999 4.510509 33.348998 -0.74754
2005-09-08 07:44:56 51°26.042 2°48.476 -999 4.50999 33.345961 -0.74754
2005-09-08 07:45:56 51°26.048 2°48.467 -999 4.509887 33.342589 -0.74754
2005-09-08 07:46:56 51°26.055 2°48.459 -999 4.50916 33.340348 -0.74754
2005-09-08 07:47:55 51°26.061 2°48.449 -999 4.50916 33.337207 -0.74754
2005-09-08 07:48:56 51°26.067 2°48.438 -999 4.507915 33.328787 -0.74754
2005-09-08 07:49:55 51°26.073 2°48.429 -999 4.507188 33.325289 -0.74754
2005-09-08 07:50:56 51°26.079 2°48.418 -999 4.507292 33.324263 -0.71383
2005-09-08 07:51:55 51°26.085 2°48.407 -999 4.506877 33.322085 -0.71383
2005-09-08 07:52:56 51°26.09 2°48.396 -999 4.5075 33.321585 -0.74754
2005-09-08 07:53:56 51°26.096 2°48.386 -999 4.507085 33.320662 -0.71383
2005-09-08 07:54:55 51°26.101 2°48.375 -999 4.507188 33.317753 -0.71383
2005-09-08 07:55:56 51°26.106 2°48.364 -999 4.50667 33.315972 -0.71383
2005-09-08 07:56:55 51°26.111 2°48.353 -999 4.506566 33.315741 -0.71383
2005-09-08 07:57:55 51°26.116 2°48.344 -999 4.506358 33.314652 -0.71383
2005-09-08 07:58:55 51°26.12 2°48.334 -999 4.506151 33.314818 -0.71383
2005-09-08 07:59:55 51°26.124 2°48.325 -999 4.505943 33.312473 -0.71383
2005-09-08 08:00:56 51°26.127 2°48.316 -999 4.505528 33.310922 -0.71383
2005-09-08 08:01:55 51°26.129 2°48.305 -999 4.505528 33.310922 -0.71383
2005-09-08 08:02:56 51°26.13 2°48.293 -999 4.505943 33.31059 -0.71383
2005-09-08 08:03:56 51°26.131 2°48.279 -999 4.506151 33.311679 -0.71383
2005-09-08 08:04:56 51°26.131 2°48.264 -999 4.506151 33.311051 -0.71383
2005-09-08 08:05:55 51°26.108 2°48.288 -999 4.506462 33.310489 -0.71383
2005-09-08 08:06:56 51°26.049 2°48.362 -999 4.506047 33.30831 -0.71383
2005-09-08 08:07:56 51°25.983 2°48.447 -999 4.505113 33.297447 -0.71383
2005-09-08 08:08:55 51°25.966 2°48.48 -999 4.503867 33.281504 -0.71383
2005-09-08 08:09:56 51°25.966 2°48.473 -999 4.500858 33.247225 -0.71383
2005-09-08 08:10:56 51°25.97 2°48.465 -999 4.499716 33.234035 -0.71383
2005-09-08 08:11:56 51°25.973 2°48.456 -999 4.498575 33.223975 -0.71383
2005-09-08 08:12:55 51°25.975 2°48.446 -999 4.498886 33.219043 -0.71383
2005-09-08 08:13:56 51°25.976 2°48.435 -999 4.499094 33.220758 -0.71383
2005-09-08 08:14:56 51°25.975 2°48.422 -999 4.499301 33.222473 -0.71383
2005-09-08 08:15:54 51°25.975 2°48.409 -999 4.499509 33.220437 -0.71383
2005-09-08 08:16:56 51°25.974 2°48.393 -999 4.49982 33.222384 -0.71383
2005-09-08 08:17:56 51°25.973 2°48.378 -999 4.501376 33.23587 -0.71383
2005-09-08 08:18:56 51°25.972 2°48.362 -999 4.501792 33.246182 -0.71383
2005-09-08 08:19:56 51°25.971 2°48.346 -999 4.501273 33.23814 -0.71383
2005-09-08 08:20:56 51°25.97 2°48.331 -999 4.500754 33.226974 -0.71383
2005-09-08 08:21:56 51°25.968 2°48.315 -999 4.501376 33.227741 -0.71383
2005-09-08 08:22:56 51°25.965 2°48.306 -999 4.501376 33.225866 -0.680121
2005-09-08 08:23:56 51°25.961 2°48.364 -999 4.503348 33.23215 -0.680121
2005-09-08 08:24:56 51°25.988 2°48.449 -999 4.502518 33.222795 -0.71383
2005-09-08 08:25:56 51°26.013 2°48.488 -999 4.502725 33.227633 -0.71383
2005-09-08 08:26:56 51°26.018 2°48.488 -999 4.501169 33.227902 -0.71383
2005-09-08 08:27:56 51°26.018 2°48.485 -999 4.50148 33.227348 -0.680121
2005-09-08 08:28:56 51°26.016 2°48.479 -999 4.501791 33.224919 -0.71383
2005-09-08 08:29:56 51°26.013 2°48.469 -999 4.501791 33.223045 -0.71383
2005-09-08 08:30:56 51°26.008 2°48.456 -999 4.501169 33.222901 -0.71383
2005-09-08 08:31:56 51°26.003 2°48.441 -999 4.501687 33.219064 -0.71383
2005-09-08 08:32:56 51°25.998 2°48.425 -999 4.500754 33.218223 -0.71383
2005-09-08 08:33:55 51°25.993 2°48.407 -999 4.500546 33.214635 -0.71383
2005-09-08 08:34:56 51°25.988 2°48.389 -999 4.500339 33.214795 -0.71383
2005-09-08 08:35:56 51°25.983 2°48.37 -999 4.500857 33.213458 -0.680121
2005-09-08 08:36:56 51°25.979 2°48.349 -999 4.500961 33.213065 -0.680121
2005-09-08 08:37:56 51°25.974 2°48.329 -999 4.50148 33.211105 -0.680121
2005-09-08 08:38:56 51°25.97 2°48.307 -999 4.501065 33.212049 -0.680121
2005-09-08 08:39:56 51°25.964 2°48.286 -999 4.501065 33.211424 -0.680121
2005-09-08 08:40:56 51°25.951 2°48.3 -999 4.501687 33.210945 -0.680121
2005-09-08 08:41:56 51°25.958 2°48.387 -999 4.50231 33.208594 -0.680121
2005-09-08 08:42:56 51°25.997 2°48.482 -999 4.50065 33.203002 -0.680121
2005-09-08 08:43:56 51°26.023 2°48.501 -999 4.498159 33.175582 -0.680121
2005-09-08 08:44:56 51°26.029 2°48.506 -999 4.496291 33.162037 -0.680121
2005-09-08 08:45:56 51°26.029 2°48.505 -999 4.497121 33.152065 -0.680121
2005-09-08 08:46:56 51°26.028 2°48.501 -999 4.497328 33.140082 -0.680121
2005-09-08 08:47:56 51°26.025 2°48.492 -999 4.496291 33.134014 -0.680121
2005-09-08 08:48:56 51°26.021 2°48.481 -999 4.495045 33.129345 -0.680121
2005-09-08 08:49:56 51°26.016 2°48.468 -999 4.494215 33.125609 -0.680121
2005-09-08 08:50:56 51°26.012 2°48.451 -999 4.494734 33.119936 -0.680121
2005-09-08 08:51:56 51°26.007 2°48.433 -999 4.494111 33.114802 -0.680121
2005-09-08 08:52:56 51°26.002 2°48.417 -999 4.494422 33.108045 -0.680121
2005-09-08 08:53:56 51°25.995 2°48.4 -999 4.494007 33.105866 -0.680121
2005-09-08 08:54:56 51°25.988 2°48.381 -999 4.494319 33.099734 -0.680121
2005-09-08 08:55:56 51°25.98 2°48.363 -999 4.4938 33.09608 -0.680121
2005-09-08 08:56:56 51°25.973 2°48.343 -999 4.492658 33.092884 -0.680121
2005-09-08 08:57:56 51°25.956 2°48.343 -999 4.492036 33.0921 -0.680121
2005-09-08 08:58:56 51°25.965 2°48.408 -999 4.490583 33.083852 -0.680121
2005-09-08 08:59:56 51°26.01 2°48.445 -999 4.479065 32.972832 -0.680121
2005-09-08 09:00:56 51°26.021 2°48.437 -999 4.474706 32.914097 -0.680121
2005-09-08 09:01:56 51°26.031 2°48.423 -999 4.474913 32.891144 -0.680121
2005-09-08 09:02:56 51°26.041 2°48.407 -999 4.471696 32.840099 -0.680121
2005-09-08 09:03:56 51°26.049 2°48.39 -999 4.468168 32.817873 -0.680121
2005-09-08 09:04:56 51°26.055 2°48.374 -999 4.469414 32.872406 -0.680121
2005-09-08 09:05:56 51°26.058 2°48.357 -999 4.468688 32.899738 -0.680121
2005-09-08 09:06:56 51°26.06 2°48.341 -999 4.467236 32.886541 -0.680121
2005-09-08 09:07:56 51°26.06 2°48.325 -999 4.467028 32.882363 -0.646411
2005-09-08 09:08:56 51°26.06 2°48.314 -999 4.46516 32.850341 -0.680121
2005-09-08 09:09:55 51°26.034 2°48.36 -999 4.461735 32.76932 -0.680121
2005-09-08 09:10:56 51°25.993 2°48.435 -999 4.458933 32.738955 -0.680121
2005-09-08 09:11:56 51°25.995 2°48.467 -999 4.457895 32.71146 -0.680121
2005-09-08 09:12:56 51°26 2°48.475 -999 4.456131 32.696373 -0.680121
2005-09-08 09:13:56 51°26.005 2°48.476 -999 4.454886 32.691046 -0.680121
2005-09-08 09:14:56 51°26.008 2°48.473 -999 4.453226 32.709847 -0.646411
2005-09-08 09:15:55 51°26.008 2°48.468 -999 4.452189 32.697038 -0.680121
2005-09-08 09:16:56 51°26.006 2°48.459 -999 4.452085 32.685784 -0.680121
2005-09-08 09:17:56 51°26.002 2°48.447 -999 4.45167 32.67993 -0.680121
2005-09-08 09:18:55 51°25.977 2°48.483 -999 4.450321 32.670079 -0.646411
2005-09-08 09:19:56 51°25.831 2°48.514 -999 4.449906 32.664227 -0.646411
2005-09-08 09:20:56 51°25.633 2°48.362 -999 4.450528 32.67484 -0.680121
2005-09-08 09:21:56 51°25.43 2°48.166 -999 4.452707 32.684779 -0.646411
2005-09-08 09:22:56 51°25.234 2°47.949 -999 4.456027 32.70286 -0.646411
2005-09-08 09:23:56 51°25.041 2°47.725 -999 4.45582 32.691985 -0.646411
2005-09-08 09:24:56 51°24.846 2°47.499 -999 4.459659 32.731445 -0.646411
2005-09-08 09:25:56 51°24.658 2°47.267 -999 4.462669 32.786811 -0.646411
2005-09-08 09:26:56 51°24.469 2°47.026 -999 4.465263 32.813044 -0.646411
2005-09-08 09:27:56 51°24.279 2°46.785 -999 4.468687 32.838116 -0.646411
2005-09-08 09:28:56 51°24.087 2°46.545 -999 4.469414 32.865629 -0.646411
2005-09-08 09:29:56 51°23.886 2°46.33 -999 4.471178 32.887536 -0.646411
2005-09-08 09:30:56 51°23.684 2°46.119 -999 4.474084 32.934907 -0.646411
2005-09-08 09:31:56 51°23.482 2°45.905 -999 4.476678 32.972976 -0.646411
2005-09-08 09:32:56 51°23.279 2°45.69 -999 4.47865 32.993558 -0.646411
2005-09-08 09:33:56 51°23.076 2°45.475 -999 4.480414 33.016157 -0.612702
2005-09-08 09:34:56 51°22.871 2°45.26 -999 4.483423 33.044691 -0.646411
2005-09-08 09:35:56 51°22.662 2°45.051 -999 4.484046 33.030589 -0.646411
2005-09-08 09:36:56 51°22.445 2°44.885 -999 4.484979 33.031465 -0.646411
2005-09-08 09:37:56 51°22.226 2°44.725 -999 4.484668 33.004123 -0.646411
2005-09-08 09:38:55 51°22.008 2°44.574 -999 4.488403 33.008269 -0.646411
2005-09-08 09:39:56 51°21.776 2°44.469 -999 4.487054 32.990371 -0.646411
2005-09-08 09:40:56 51°21.556 2°44.316 -999 4.48529 33.007393 -0.646411
2005-09-08 09:41:56 51°21.338 2°44.165 -999 4.474809 32.891523 -0.646411
2005-09-08 09:42:56 51°21.119 2°44.004 -999 4.476263 32.958417 -0.646411
2005-09-08 09:43:56 51°20.9 2°43.845 -999 4.470658 32.839563 -0.646411
2005-09-08 09:44:56 51°20.682 2°43.681 -999 4.469206 32.833158 -0.646411
2005-09-08 09:45:56 51°20.464 2°43.517 -999 4.468998 32.808729 -0.646411
2005-09-08 09:46:56 51°20.246 2°43.353 -999 4.468375 32.796869 -0.612702
2005-09-08 09:47:56 51°20.026 2°43.188 -999 4.468167 32.773717 -0.646411
2005-09-08 09:48:56 51°19.807 2°43.039 -999 4.467026 32.773539 -0.612702
2005-09-08 09:49:56 51°19.585 2°42.898 -999 4.46713 32.800141 -0.612702
2005-09-08 09:50:56 51°19.363 2°42.76 -999 4.46879 32.791692 -0.612702
2005-09-08 09:51:56 51°19.142 2°42.618 -999 4.474704 32.823062 -0.612702
2005-09-08 09:52:56 51°18.922 2°42.477 -999 4.457167 32.615874 -0.612702
2005-09-08 09:53:56 51°18.7 2°42.336 -999 4.461318 32.659581 -0.612702
2005-09-08 09:54:56 51°18.479 2°42.194 -999 4.465364 32.690277 -0.612702
2005-09-08 09:55:56 51°18.256 2°42.053 -999 4.472005 32.750153 -0.612702
2005-09-08 09:56:56 51°18.034 2°41.91 -999 4.486844 32.864992 -0.612702
2005-09-08 09:57:56 51°17.814 2°41.768 -999 4.494107 32.899987 -0.612702
2005-09-08 09:58:56 51°17.596 2°41.593 -999 4.501683 32.975553 -0.612702
2005-09-08 09:59:56 51°17.381 2°41.418 -999 4.526381 33.137927 -0.612702
2005-09-08 10:00:56 51°17.166 2°41.245 -999 4.539145 33.238826 -0.578993
2005-09-08 10:01:56 51°16.949 2°41.07 -999 4.544646 33.26596 -0.578993
2005-09-08 10:02:56 51°16.728 2°40.919 -999 4.560836 33.391822 -0.612702
2005-09-08 10:03:56 51°16.499 2°40.778 -999 4.57163 33.5015 -0.612702
2005-09-08 10:04:56 51°16.275 2°40.638 -999 4.587925 33.606475 -0.612702
2005-09-08 10:05:56 51°16.048 2°40.501 -999 4.610136 33.758629 -0.612702
2005-09-08 10:06:56 51°15.826 2°40.367 -999 4.613147 33.799019 -0.612702
2005-09-08 10:07:56 51°15.601 2°40.233 -999 4.62114 33.87659 -0.578993
2005-09-08 10:08:56 51°15.376 2°40.096 -999 4.637539 33.918624 -0.646411
2005-09-08 10:09:56 51°15.15 2°39.958 -999 4.649476 33.981201 -0.646411
2005-09-08 10:10:56 51°14.927 2°39.824 -999 4.655497 34.036818 -0.612702
2005-09-08 10:11:56 51°14.707 2°39.691 -999 4.658818 34.055207 -0.612702
2005-09-08 10:12:56 51°14.49 2°39.537 -999 4.653213 34.006772 -0.612702
2005-09-08 10:13:56 51°14.274 2°39.387 -999 4.642728 33.930974 -0.612702
2005-09-08 10:14:56 51°14.06 2°39.236 -999 4.634528 33.871984 -0.578993
2005-09-08 10:15:56 51°13.843 2°39.079 -999 4.634113 33.872348 -0.578993
2005-09-08 10:16:56 51°13.625 2°38.92 -999 4.644597 33.937478 -0.612702
2005-09-08 10:17:56 51°13.411 2°38.76 -999 4.645739 33.950598 -0.578993
2005-09-08 10:18:56 51°13.194 2°38.599 -999 4.643559 33.93589 -0.578993
2005-09-08 10:19:56 51°12.974 2°38.439 -999 4.644285 33.948754 -0.578993
2005-09-08 10:20:56 51°12.754 2°38.28 -999 4.649476 33.993789 -0.578993
2005-09-08 10:21:56 51°12.536 2°38.119 -999 4.662452 34.098862 -0.578993
2005-09-08 10:22:56 51°12.317 2°37.966 -999 4.683733 34.262576 -0.612702
2005-09-08 10:23:56 51°12.087 2°37.858 -999 4.693803 34.332455 -0.612702
2005-09-08 10:24:56 51°11.865 2°37.72 -999 4.706262 34.441653 -0.612702
2005-09-08 10:25:56 51°11.644 2°37.572 -999 4.717682 34.543702 -0.612702
2005-09-08 10:26:56 51°11.424 2°37.421 -999 4.713842 34.563386 -0.612702
2005-09-08 10:27:56 51°11.206 2°37.26 -999 4.710001 34.561306 -0.612702
2005-09-08 10:28:56 51°10.989 2°37.1 -999 4.709378 34.557464 -0.612702
2005-09-08 10:29:56 51°10.778 2°36.939 -999 4.711662 34.555078 -0.612702
2005-09-08 10:30:56 51°10.569 2°36.769 -999 4.713426 34.552919 -0.612702
2005-09-08 10:31:56 51°10.365 2°36.588 -999 4.715814 34.550758 -0.612702
2005-09-08 10:32:56 51°10.141 2°36.537 -999 4.717578 34.54157 -0.612702
2005-09-08 10:33:56 51°9.928 2°36.642 -999 4.720588 34.511329 -0.646411
2005-09-08 10:34:56 51°9.716 2°36.761 -999 4.716643 34.50131 -0.612702
2005-09-08 10:35:56 51°9.507 2°36.879 -999 4.7182 34.459904 -0.578993
2005-09-08 10:36:56 51°9.313 2°36.984 -999 4.718719 34.445711 -0.578993
2005-09-08 10:37:56 51°9.189 2°37.074 -999 4.714877 34.411093 -0.578993
2005-09-08 10:38:56 51°9.127 2°37.17 -999 4.716019 34.394423 -0.578993
2005-09-08 10:39:56 51°9.105 2°37.225 -999 4.717264 34.386864 -0.578993
2005-09-08 10:40:55 51°9.096 2°37.223 -999 4.717264 34.38433 -0.578993
2005-09-08 10:41:56 51°9.088 2°37.217 -999 4.716122 34.382596 -0.578993
2005-09-08 10:42:56 51°9.083 2°37.21 -999 4.716849 34.381569 -0.578993
2005-09-08 10:43:56 51°9.078 2°37.203 -999 4.717887 34.381188 -0.578993
2005-09-08 10:44:56 51°9.074 2°37.196 -999 4.716953 34.381784 -0.578993
2005-09-08 10:45:56 51°9.071 2°37.19 -999 4.717264 34.38053 -0.578993
2005-09-08 10:46:56 51°9.069 2°37.185 -999 4.717368 34.380745 -0.578993
2005-09-08 10:47:56 51°9.068 2°37.182 -999 4.718095 34.381619 -0.578993
2005-09-08 10:48:56 51°9.067 2°37.181 -999 4.717264 34.381163 -0.578993
2005-09-08 10:49:56 51°9.066 2°37.18 -999 4.71716 34.381581 -0.578993
2005-09-08 10:50:56 51°9.065 2°37.179 -999 4.717368 34.382645 -0.578993
2005-09-08 10:51:56 51°9.064 2°37.18 -999 4.717472 34.38286 -0.578993
2005-09-08 10:52:56 51°9.064 2°37.18 -999 4.717783 34.382239 -0.578993
2005-09-08 10:53:56 51°9.064 2°37.18 -999 4.717264 34.38243 -0.578993
2005-09-08 10:54:56 51°9.065 2°37.179 -999 4.716745 34.381987 -0.578993
2005-09-08 10:55:56 51°9.065 2°37.179 -999 4.717783 34.38034 -0.578993
2005-09-08 10:56:56 51°9.065 2°37.179 -999 4.71716 34.381581 -0.578993
2005-09-08 10:57:56 51°9.066 2°37.179 -999 4.716641 34.381138 -0.578993
2005-09-08 10:58:56 51°9.067 2°37.179 -999 4.716745 34.380087 -0.578993
2005-09-08 10:59:56 51°9.068 2°37.18 -999 4.716122 34.380062 -0.578993
2005-09-08 11:00:56 51°9.069 2°37.181 -999 4.716434 34.378175 -0.578993
2005-09-08 11:01:56 51°9.071 2°37.183 -999 4.716226 34.377111 -0.578993
2005-09-08 11:02:56 51°9.071 2°37.184 -999 4.716226 34.375844 -0.578993
2005-09-08 11:03:56 51°9.072 2°37.186 -999 4.715914 34.374565 -0.578993
2005-09-08 11:04:56 51°9.073 2°37.19 -999 4.716537 34.370792 -0.578993
2005-09-08 11:05:56 51°9.074 2°37.191 -999 4.715499 34.371804 -0.578993
2005-09-08 11:06:56 51°9.075 2°37.194 -999 4.715499 34.369272 -0.578993
2005-09-08 11:07:56 51°9.076 2°37.196 -999 4.714357 34.364369 -0.612702
2005-09-08 11:08:56 51°9.077 2°37.197 -999 4.713527 34.363912 -0.578993
2005-09-08 11:09:56 51°9.078 2°37.199 -999 4.714357 34.363103 -0.578993
2005-09-08 11:10:56 51°9.079 2°37.202 -999 4.714046 34.365622 -0.578993
2005-09-08 11:11:56 51°9.079 2°37.205 -999 4.714046 34.363723 -0.578993
2005-09-08 11:12:56 51°9.079 2°37.209 -999 4.714565 34.361002 -0.578993
2005-09-08 11:13:56 51°9.079 2°37.213 -999 4.713215 34.363899 -0.578993
2005-09-08 11:14:56 51°9.079 2°37.217 -999 4.712489 34.360491 -0.578993
2005-09-08 11:15:56 51°9.08 2°37.221 -999 4.713111 34.359884 -0.578993
2005-09-08 11:16:56 51°9.081 2°37.225 -999 4.712592 34.358173 -0.578993
2005-09-08 11:17:56 51°9.081 2°37.23 -999 4.713319 34.357783 -0.578993
2005-09-08 11:18:56 51°9.081 2°37.235 -999 4.712281 34.356893 -0.578993
2005-09-08 11:19:56 51°9.081 2°37.236 -999 4.711969 34.357513 -0.578993
2005-09-08 11:20:56 51°9.081 2°37.241 -999 4.712073 34.355829 -0.578993
2005-09-08 11:21:56 51°9.081 2°37.243 -999 4.712385 34.357742 -0.578993
2005-09-08 11:22:56 51°9.081 2°37.246 -999 4.711139 34.356422 -0.578993
2005-09-08 11:23:56 51°9.079 2°37.247 -999 4.712281 34.356893 -0.578993
2005-09-08 11:24:56 51°9.078 2°37.25 -999 4.711554 34.358551 -0.578993
2005-09-08 11:25:56 51°9.077 2°37.251 -999 4.71145 34.355802 -0.578993
2005-09-08 11:26:56 51°9.076 2°37.251 -999 4.712073 34.357729 -0.578993
2005-09-08 11:27:56 51°9.075 2°37.252 -999 4.710516 34.357662 -0.578993
2005-09-08 11:28:56 51°9.075 2°37.252 -999 4.7128 34.357971 -0.578993
2005-09-08 11:29:56 51°9.074 2°37.252 -999 4.712177 34.358577 -0.578993
2005-09-08 11:30:56 51°9.073 2°37.252 -999 4.711554 34.357917 -0.578993
2005-09-08 11:31:56 51°9.072 2°37.252 -999 4.71145 34.357702 -0.578993
2005-09-08 11:32:56 51°9.072 2°37.252 -999 4.713008 34.357769 -0.578993
2005-09-08 11:33:56 51°9.072 2°37.251 -999 4.713423 34.359898 -0.578993
2005-09-08 11:34:56 51°9.071 2°37.251 -999 4.713734 34.359911 -0.578993
2005-09-08 11:35:56 51°9.072 2°37.25 -999 4.714565 34.358471 -0.578993
2005-09-08 11:36:56 51°9.071 2°37.25 -999 4.714046 34.361824 -0.578993
2005-09-08 11:37:56 51°9.071 2°37.249 -999 4.713008 34.360935 -0.578993
2005-09-08 11:38:56 51°9.071 2°37.249 -999 4.713734 34.359278 -0.578993
2005-09-08 11:39:56 51°9.071 2°37.249 -999 4.713838 34.36076 -0.578993
2005-09-08 11:40:56 51°9.072 2°37.25 -999 4.714357 34.361204 -0.578993
2005-09-08 11:41:56 51°9.072 2°37.251 -999 4.713215 34.361366 -0.578993
2005-09-08 11:42:56 51°9.072 2°37.251 -999 4.712904 34.362619 -0.578993
2005-09-08 11:43:56 51°9.071 2°37.254 -999 4.713008 34.362201 -0.578993
2005-09-08 11:44:56 51°9.071 2°37.256 -999 4.713734 34.359911 -0.578993
2005-09-08 11:45:56 51°9.071 2°37.259 -999 4.71415 34.363305 -0.578993
2005-09-08 11:46:56 51°9.073 2°37.264 -999 4.714669 34.360585 -0.578993
2005-09-08 11:47:56 51°9.123 2°37.365 -999 4.717471 34.357549 -0.578993
2005-09-08 11:48:56 51°9.227 2°37.622 -999 4.71415 34.363938 -0.578993
2005-09-08 11:49:56 51°9.321 2°37.917 -999 4.712281 34.360059 -0.578993
2005-09-08 11:50:56 51°9.417 2°38.213 -999 4.712073 34.35393 -0.578993
2005-09-08 11:51:56 51°9.513 2°38.509 -999 4.712385 34.359008 -0.545283
2005-09-08 11:52:56 51°9.592 2°38.816 -999 4.712592 34.361973 -0.545283
2005-09-08 11:53:56 51°9.673 2°39.124 -999 4.712696 34.360922 -0.545283
2005-09-08 11:54:56 51°9.754 2°39.435 -999 4.711554 34.350952 -0.578993
2005-09-08 11:55:56 51°9.836 2°39.742 -999 4.708751 34.323611 -0.578993
2005-09-08 11:56:56 51°9.919 2°40.045 -999 4.703768 34.284781 -0.578993
2005-09-08 11:57:56 51°10.001 2°40.354 -999 4.699096 34.246607 -0.578993
2005-09-08 11:58:56 51°10.082 2°40.659 -999 4.692036 34.182638 -0.578993
2005-09-08 11:59:56 51°10.163 2°40.961 -999 4.683212 34.118754 -0.578993
2005-09-08 12:00:56 51°10.245 2°41.267 -999 4.676049 34.067172 -0.578993
2005-09-08 12:01:56 51°10.329 2°41.579 -999 4.668471 34.025995 -0.578993
2005-09-08 12:02:56 51°10.414 2°41.891 -999 4.66681 34.018701 -0.578993
2005-09-08 12:03:56 51°10.497 2°42.2 -999 4.663903 33.973651 -0.578993
2005-09-08 12:04:56 51°10.582 2°42.513 -999 4.658816 33.944645 -0.578993
2005-09-08 12:05:56 51°10.669 2°42.821 -999 4.656532 33.907244 -0.578993
2005-09-08 12:06:56 51°10.754 2°43.13 -999 4.648851 33.877662 -0.612702
2005-09-08 12:07:56 51°10.839 2°43.436 -999 4.641481 33.810006 -0.612702
2005-09-08 12:08:56 51°10.925 2°43.746 -999 4.638574 33.799377 -0.612702
2005-09-08 12:09:56 51°11.01 2°44.051 -999 4.626845 33.707995 -0.578993
2005-09-08 12:10:56 51°11.095 2°44.361 -999 4.610443 33.519776 -0.578993
2005-09-08 12:11:56 51°11.166 2°44.673 -999 4.602035 33.441475 -0.578993
2005-09-08 12:12:56 51°11.258 2°44.976 -999 4.599958 33.335639 -0.578993
2005-09-08 12:13:56 51°11.349 2°45.273 -999 4.581276 33.209674 -0.578993
2005-09-08 12:14:56 51°11.439 2°45.569 -999 4.562492 33.163865 -0.578993
2005-09-08 12:15:56 51°11.526 2°45.87 -999 4.553254 33.064955 -0.578993
2005-09-08 12:16:56 51°11.607 2°46.175 -999 4.537376 32.951103 -0.545283
2005-09-08 12:17:56 51°11.688 2°46.48 -999 4.526272 32.88754 -0.545283
2005-09-08 12:18:56 51°11.769 2°46.787 -999 4.515064 32.797646 -0.545283
2005-09-08 12:19:56 51°11.853 2°47.095 -999 4.497422 32.618837 -0.545283
2005-09-08 12:20:56 51°11.939 2°47.399 -999 4.483102 32.515865 -0.511574
2005-09-08 12:21:56 51°12.026 2°47.702 -999 4.466605 32.43047 -0.511574
2005-09-08 12:22:56 51°12.115 2°48.006 -999 4.470962 32.415017 -0.511574
2005-09-08 12:23:56 51°12.201 2°48.31 -999 4.467329 32.337931 -0.511574
2005-09-08 12:24:56 51°12.294 2°48.607 -999 4.46515 32.303072 -0.511574
2005-09-08 12:25:56 51°12.402 2°48.892 -999 4.463385 32.242602 -0.511574
2005-09-08 12:26:56 51°12.511 2°49.179 -999 4.459131 32.240771 -0.511574
2005-09-08 12:27:56 51°12.617 2°49.468 -999 4.45301 32.232728 -0.477864
2005-09-08 12:28:56 51°12.722 2°49.76 -999 4.455706 32.168205 -0.477864
2005-09-08 12:29:56 51°12.825 2°50.052 -999 4.433815 32.102243 -0.477864
2005-09-08 12:30:56 51°12.93 2°50.347 -999 4.424167 32.049534 -0.477864
2005-09-08 12:31:56 51°13.035 2°50.644 -999 4.420535 32.033119 -0.477864
2005-09-08 12:32:56 51°13.141 2°50.945 -999 4.420224 32.008768 -0.444155
2005-09-08 12:33:56 51°13.245 2°51.242 -999 4.418356 31.980108 -0.444155
2005-09-08 12:34:56 51°13.351 2°51.539 -999 4.417733 31.95331 -0.444155
2005-09-08 12:35:56 51°13.47 2°51.827 -999 4.407773 31.88161 -0.477864
2005-09-08 12:36:56 51°13.59 2°52.118 -999 4.402274 31.830144 -0.477864
2005-09-08 12:37:56 51°13.709 2°52.409 -999 4.401443 31.77844 -0.477864
2005-09-08 12:38:56 51°13.825 2°52.698 -999 4.41109 31.73804 -0.477864
2005-09-08 12:39:56 51°13.944 2°52.989 -999 4.419181 31.719644 -0.511574
2005-09-08 12:40:56 51°14.061 2°53.281 -999 4.421463 31.68946 -0.511574
2005-09-08 12:41:56 51°14.178 2°53.573 -999 4.415652 31.640057 -0.511574
2005-09-08 12:42:56 51°14.29 2°53.873 -999 4.407145 31.591487 -0.511574
2005-09-08 12:43:56 51°14.379 2°54.191 -999 4.389821 31.554434 -0.477864
2005-09-08 12:44:56 51°14.425 2°54.518 -999 4.390339 31.48156 -0.477864
2005-09-08 12:45:56 51°14.408 2°54.843 -999 4.385567 31.47659 -0.477864
2005-09-08 12:46:56 51°14.356 2°55.125 -999 4.379862 31.467578 -0.410446
2005-09-08 12:47:56 51°14.254 2°55.316 -999 4.377269 31.48299 -0.309317
2005-09-08 12:48:56 51°14.124 2°55.429 -999 0.068375 0.369477 1.713247
2005-09-08 12:49:56 51°13.989 2°55.524 -999 0.053764 0.288366 1.645828
2005-09-08 12:50:56 51°13.873 2°55.604 -999 0.048002 0.256612 1.645828
2005-09-08 12:51:56 51°13.779 2°55.678 -999 0.044195 0.235716 1.612118
2005-09-08 12:52:56 51°13.717 2°55.787 -999 0.041623 0.22162 1.645828
2005-09-08 12:53:56 51°13.679 2°55.895 -999 0.039668 0.210912 1.645828
2005-09-08 12:54:56 51°13.664 2°55.957 -999 0.038433 0.204109 1.713247
2005-09-08 12:55:56 51°13.662 2°55.96 -999 0.036787 0.195128 1.645828
2005-09-08 12:56:56 51°13.662 2°55.96 -999 0.035552 0.188378 1.713247
2005-09-08 12:57:56 51°13.662 2°55.959 -999 0.034729 0.183854 1.679537
2005-09-08 12:58:57 51°13.662 2°55.959 -999 0.033906 0.179337 1.713247
2005-09-08 12:59:57 51°13.663 2°55.959 -999 0.033186 0.175383 1.713247
2005-09-08 13:00:57 51°13.662 2°55.959 -999 0.032362 0.170895 1.679537
2005-09-08 13:01:57 51°13.663 2°55.959 -999 0.031642 0.166962 1.645828
2005-09-08 13:02:57 51°13.663 2°55.959 -999 0.031025 0.16359 1.679537
2005-09-08 13:03:57 51°13.662 2°55.958 -999 0.030408 0.160223 1.679537
2005-09-08 13:04:57 51°13.663 2°55.959 -999 0.029893 0.157409 1.645828
2005-09-08 13:05:54 51°13.663 2°55.959 -999 0.029379 0.154602 1.645828
2005-09-08 13:38:34 51°13.663 2°55.96 -999 0.020942 0.108771 1.578409
2005-09-08 13:39:45 51°13.662 2°55.958 -999 0.020736 0.107671 1.612118
2005-09-08 13:40:45 51°13.663 2°55.958 -999 0.020633 0.107102 1.578409
2005-09-08 13:41:45 51°13.664 2°55.959 -999 0.02053 0.106536 1.578409
2005-09-08 13:42:45 51°13.663 2°55.958 -999 0.020427 0.105969 1.578409
2005-09-08 13:43:45 51°13.662 2°55.959 -999 1.460408 8.507215 1.578409
2005-09-08 13:44:45 51°13.663 2°55.96 -999 0.166124 0.833095 1.612118
2005-09-08 13:45:45 51°13.662 2°55.96 -999 0.08391 0.40827 1.612118
2005-09-08 13:46:45 51°13.662 2°55.96 -999 0.07465 0.361326 1.578409
2005-09-08 13:47:48 51°13.662 2°55.959 -999 0.073209 0.352921 1.578409
2005-09-08 13:49:00 51°13.662 2°55.962 -999 0.073106 0.350757 1.578409
2005-09-08 13:49:59 51°13.663 2°55.959 -999 0.073209 0.34906 1.578409
2005-09-08 13:51:00 51°13.663 2°55.96 -999 0.073621 0.348984 1.578409
2005-09-08 13:52:00 51°13.663 2°55.96 -999 0.073929 0.349577 1.578409